Terminal Aerodrome Forecast
Issued by NWS

Home | Current Version | Previous Version | Text Only | Print | Product List | Glossary On
Versions: 1 2 3 4 5 6 7 8 9 10 11 12 13
000
FTUS45 KMSO 250520
TAFSMN
TAF
KSMN 250520Z 2506/2606 VRB06KT P6SM SCT150
     FM251600 VRB05KT P6SM VCSH BKN100
     FM252200 36010G20KT P6SM VCTS BKN100CB
      AMD NOT SKED=

USA.gov is the U.S. government's official web portal to all federal, state and local government web resources and services.